Wetterdaten: Woche 08.07.13 - 14.07.13 (KW28)
Datum Zeit Temp. A. Feuchte A. Luftdruck Regen Wind Richtung Taupunkt Windchill Windben
08.07.2013 00:00 19,6 C 69 % 1026,0 hPa 0,0 l/m 1,1 km/h N 13,7 C 19,6 C 5,2 km/h
08.07.2013 01:00 19,3 C 67 % 1025,9 hPa 0,0 l/m 1,3 km/h N 13,0 C 19,3 C 8,1 km/h
08.07.2013 02:00 19,0 C 67 % 1025,5 hPa 0,0 l/m 2,0 km/h N 12,7 C 19,0 C 8,4 km/h
08.07.2013 03:00 18,7 C 68 % 1025,3 hPa 0,0 l/m 2,1 km/h N 12,7 C 18,7 C 8,9 km/h
08.07.2013 04:00 18,1 C 70 % 1025,5 hPa 0,0 l/m 2,0 km/h N 12,5 C 18,1 C 10,1 km/h
08.07.2013 05:00 17,7 C 71 % 1025,6 hPa 0,0 l/m 1,1 km/h N 12,4 C 17,7 C 6,4 km/h
08.07.2013 06:00 17,9 C 71 % 1025,8 hPa 0,0 l/m 3,0 km/h N 12,6 C 17,9 C 12,5 km/h
08.07.2013 07:00 18,8 C 69 % 1025,9 hPa 0,0 l/m 5,4 km/h N 13,0 C 18,8 C 17,3 km/h
08.07.2013 08:00 20,1 C 66 % 1026,0 hPa 0,0 l/m 6,9 km/h N 13,5 C 19,9 C 16,5 km/h
08.07.2013 09:00 21,6 C 61 % 1026,0 hPa 0,0 l/m 6,4 km/h N 13,8 C 21,5 C 18,5 km/h
08.07.2013 10:00 22,9 C 58 % 1026,1 hPa 0,0 l/m 6,7 km/h N 14,2 C 22,7 C 16,5 km/h
08.07.2013 11:00 23,5 C 57 % 1026,2 hPa 0,0 l/m 6,8 km/h N 14,5 C 23,4 C 20,9 km/h
08.07.2013 12:00 24,4 C 52 % 1026,1 hPa 0,0 l/m 5,7 km/h N 13,9 C 24,3 C 16,1 km/h
08.07.2013 13:00 24,9 C 51 % 1025,8 hPa 0,0 l/m 5,3 km/h N 14,1 C 24,9 C 16,9 km/h
08.07.2013 14:00 25,4 C 48 % 1025,3 hPa 0,0 l/m 6,8 km/h N 13,7 C 25,2 C 17,3 km/h
08.07.2013 15:00 25,5 C 50 % 1024,8 hPa 0,0 l/m 6,2 km/h N 14,2 C 25,5 C 18,9 km/h
08.07.2013 16:00 25,8 C 49 % 1024,3 hPa 0,0 l/m 6,7 km/h N 14,2 C 25,7 C 17,7 km/h
08.07.2013 17:00 26,0 C 48 % 1024,0 hPa 0,0 l/m 7,3 km/h N 14,2 C 25,8 C 18,9 km/h
08.07.2013 18:00 26,1 C 48 % 1023,6 hPa 0,0 l/m 5,7 km/h N 14,3 C 26,1 C 16,1 km/h
08.07.2013 19:00 25,4 C 49 % 1023,5 hPa 0,0 l/m 6,4 km/h N 13,7 C 25,3 C 18,5 km/h
08.07.2013 20:00 24,3 C 51 % 1023,6 hPa 0,0 l/m 3,6 km/h N 13,6 C 24,3 C 13,7 km/h
08.07.2013 21:00 22,6 C 58 % 1023,9 hPa 0,0 l/m 1,3 km/h N 13,8 C 22,6 C 6,0 km/h
08.07.2013 22:00 20,8 C 65 % 1024,3 hPa 0,0 l/m 0,8 km/h N 13,8 C 20,8 C 5,6 km/h
08.07.2013 23:00 19,8 C 67 % 1024,3 hPa 0,0 l/m 0,6 km/h N 13,4 C 19,8 C 4,8 km/h
09.07.2013 00:00 19,3 C 67 % 1024,3 hPa 0,0 l/m 0,8 km/h N 13,0 C 19,3 C 5,6 km/h
09.07.2013 01:00 18,8 C 69 % 1024,1 hPa 0,0 l/m 0,1 km/h N 12,9 C 18,8 C 2,0 km/h
09.07.2013 02:00 17,3 C 75 % 1023,7 hPa 0,0 l/m 0,0 km/h N 12,7 C 17,3 C 0,0 km/h
09.07.2013 03:00 16,6 C 77 % 1023,2 hPa 0,0 l/m 0,2 km/h N 12,6 C 16,6 C 2,8 km/h
09.07.2013 04:00 16,8 C 76 % 1023,1 hPa 0,0 l/m 0,2 km/h N 12,6 C 16,8 C 3,2 km/h
09.07.2013 05:00 16,0 C 78 % 1023,2 hPa 0,0 l/m 0,0 km/h N 12,1 C 16,0 C 0,0 km/h
09.07.2013 06:00 16,0 C 80 % 1023,2 hPa 0,0 l/m 0,0 km/h N 12,5 C 16,0 C 0,0 km/h
09.07.2013 07:00 18,1 C 75 % 1022,9 hPa 0,0 l/m 2,2 km/h N 13,5 C 18,1 C 9,3 km/h
09.07.2013 08:00 20,5 C 68 % 1022,7 hPa 0,0 l/m 3,3 km/h N 14,3 C 20,5 C 11,7 km/h
09.07.2013 09:00 22,1 C 65 % 1022,3 hPa 0,0 l/m 2,8 km/h N 15,1 C 22,1 C 10,1 km/h
09.07.2013 10:00 23,6 C 60 % 1021,8 hPa 0,0 l/m 3,1 km/h N 15,5 C 23,6 C 10,5 km/h
09.07.2013 11:00 24,7 C 56 % 1021,4 hPa 0,0 l/m 3,4 km/h N 15,3 C 24,7 C 12,9 km/h
09.07.2013 12:00 25,7 C 53 % 1021,0 hPa 0,0 l/m 3,0 km/h N 15,3 C 25,7 C 12,1 km/h
09.07.2013 13:00 27,1 C 50 % 1020,4 hPa 0,0 l/m 1,6 km/h N 15,7 C 27,1 C 8,0 km/h
09.07.2013 14:00 28,3 C 48 % 1019,7 hPa 0,0 l/m 1,2 km/h N 16,1 C 28,3 C 6,8 km/h
09.07.2013 15:00 28,3 C 47 % 1019,0 hPa 0,0 l/m 1,7 km/h N 15,8 C 28,3 C 7,3 km/h
09.07.2013 16:00 28,0 C 47 % 1018,4 hPa 0,0 l/m 2,8 km/h N 15,6 C 28,0 C 10,5 km/h
09.07.2013 17:00 28,6 C 44 % 1017,6 hPa 0,0 l/m 2,1 km/h N 15,0 C 28,6 C 7,2 km/h
09.07.2013 18:00 28,8 C 44 % 1017,2 hPa 0,0 l/m 2,2 km/h N 15,2 C 28,8 C 8,4 km/h
09.07.2013 19:00 27,4 C 46 % 1016,9 hPa 0,0 l/m 3,8 km/h N 14,5 C 27,4 C 11,3 km/h
09.07.2013 20:00 25,8 C 51 % 1017,0 hPa 0,0 l/m 1,6 km/h N 14,7 C 25,8 C 6,8 km/h
09.07.2013 21:00 23,2 C 58 % 1017,3 hPa 0,0 l/m 0,0 km/h N 14,5 C 23,2 C 0,8 km/h
09.07.2013 22:00 20,7 C 66 % 1017,4 hPa 0,0 l/m 0,1 km/h N 14,0 C 20,7 C 2,0 km/h
09.07.2013 23:00 19,4 C 70 % 1017,3 hPa 0,0 l/m 0,2 km/h N 13,8 C 19,4 C 4,0 km/h
10.07.2013 00:00 18,6 C 72 % 1017,0 hPa 0,0 l/m 0,3 km/h N 13,4 C 18,6 C 4,0 km/h
10.07.2013 01:00 18,3 C 73 % 1016,6 hPa 0,0 l/m 0,5 km/h N 13,3 C 18,3 C 5,2 km/h
10.07.2013 02:00 17,6 C 74 % 1016,1 hPa 0,0 l/m 0,2 km/h N 13,0 C 17,6 C 3,6 km/h
10.07.2013 03:00 17,5 C 75 % 1015,9 hPa 0,0 l/m 0,2 km/h N 12,9 C 17,5 C 3,2 km/h
10.07.2013 04:00 16,6 C 78 % 1015,6 hPa 0,0 l/m 0,0 km/h N 12,6 C 16,6 C 0,8 km/h
10.07.2013 05:00 15,9 C 80 % 1015,6 hPa 0,0 l/m 0,0 km/h N 12,5 C 15,9 C 0,4 km/h
10.07.2013 06:00 16,5 C 82 % 1015,5 hPa 0,0 l/m 0,1 km/h N 13,4 C 16,5 C 2,4 km/h
10.07.2013 07:00 18,1 C 80 % 1015,5 hPa 0,0 l/m 0,0 km/h N 14,5 C 18,1 C 1,2 km/h
10.07.2013 08:00 22,0 C 68 % 1015,1 hPa 0,0 l/m 2,0 km/h N 15,8 C 22,0 C 6,4 km/h
10.07.2013 09:00 23,8 C 61 % 1014,9 hPa 0,0 l/m 6,1 km/h N 15,7 C 23,6 C 16,9 km/h
10.07.2013 10:00 25,1 C 59 % 1014,7 hPa 0,0 l/m 5,8 km/h N 16,5 C 25,1 C 16,9 km/h
10.07.2013 11:00 26,3 C 55 % 1014,4 hPa 0,0 l/m 4,8 km/h N 16,6 C 26,3 C 15,3 km/h
10.07.2013 12:00 26,9 C 50 % 1013,8 hPa 0,0 l/m 6,2 km/h N 15,5 C 26,8 C 16,5 km/h
10.07.2013 13:00 27,9 C 47 % 1013,3 hPa 0,0 l/m 4,7 km/h N 15,3 C 27,9 C 17,7 km/h
10.07.2013 14:00 28,0 C 46 % 1012,6 hPa 0,0 l/m 5,2 km/h N 15,2 C 28,0 C 14,9 km/h
10.07.2013 15:00 27,8 C 48 % 1012,2 hPa 0,0 l/m 5,1 km/h N 15,8 C 27,8 C 16,5 km/h
10.07.2013 16:00 27,3 C 50 % 1011,9 hPa 0,0 l/m 6,0 km/h N 15,8 C 27,3 C 19,3 km/h
10.07.2013 17:00 27,2 C 50 % 1011,3 hPa 0,0 l/m 3,7 km/h N 15,9 C 27,2 C 12,9 km/h
10.07.2013 18:00 27,0 C 50 % 1010,8 hPa 0,0 l/m 5,3 km/h N 15,7 C 27,0 C 16,9 km/h
10.07.2013 19:00 26,8 C 50 % 1010,4 hPa 0,0 l/m 4,5 km/h N 15,5 C 26,8 C 12,9 km/h
10.07.2013 20:00 25,1 C 54 % 1010,6 hPa 0,0 l/m 1,5 km/h N 14,9 C 25,1 C 7,2 km/h
10.07.2013 21:00 23,5 C 57 % 1011,0 hPa 0,0 l/m 1,6 km/h N 14,4 C 23,5 C 6,8 km/h
10.07.2013 22:00 22,3 C 62 % 1011,1 hPa 0,0 l/m 0,0 km/h N 14,6 C 22,3 C 1,2 km/h
10.07.2013 23:00 20,3 C 70 % 1011,3 hPa 0,0 l/m 0,0 km/h N 14,5 C 20,3 C 0,4 km/h
11.07.2013 00:00 18,9 C 75 % 1011,1 hPa 0,0 l/m 0,0 km/h N 14,3 C 18,9 C 0,4 km/h
11.07.2013 01:00 18,2 C 77 % 1011,1 hPa 0,0 l/m 0,0 km/h N 14,1 C 18,2 C 1,2 km/h
11.07.2013 02:00 18,4 C 78 % 1011,2 hPa 0,6 l/m 0,4 km/h N 14,4 C 18,4 C 6,9 km/h
11.07.2013 03:00 19,2 C 76 % 1012,6 hPa 3,0 l/m 10,4 km/h N 14,8 C 17,8 C 29,8 km/h
11.07.2013 04:00 17,1 C 82 % 1012,8 hPa 1,8 l/m 6,4 km/h N 14,0 C 16,6 C 20,5 km/h
11.07.2013 05:00 16,6 C 80 % 1012,2 hPa 3,0 l/m 1,6 km/h N 13,2 C 16,6 C 7,6 km/h
11.07.2013 06:00 16,6 C 79 % 1012,4 hPa 0,3 l/m 3,0 km/h N 12,9 C 16,6 C 12,1 km/h
11.07.2013 07:00 16,8 C 80 % 1012,7 hPa 0,0 l/m 6,2 km/h N 13,2 C 16,5 C 18,1 km/h
11.07.2013 08:00 17,8 C 82 % 1013,0 hPa 0,0 l/m 6,3 km/h N 14,7 C 17,6 C 18,9 km/h
11.07.2013 09:00 18,4 C 80 % 1013,5 hPa 0,0 l/m 7,4 km/h N 14,8 C 17,8 C 19,3 km/h
11.07.2013 10:00 19,0 C 78 % 1013,7 hPa 0,0 l/m 9,7 km/h N 15,1 C 17,6 C 24,1 km/h
11.07.2013 11:00 20,3 C 70 % 1013,5 hPa 0,0 l/m 8,0 km/h N 14,6 C 19,6 C 22,5 km/h
11.07.2013 12:00 20,2 C 63 % 1013,8 hPa 0,0 l/m 8,9 km/h N 12,9 C 19,3 C 26,5 km/h
11.07.2013 13:00 20,9 C 63 % 1013,7 hPa 0,0 l/m 7,2 km/h N 13,5 C 20,6 C 22,5 km/h
11.07.2013 14:00 22,1 C 58 % 1013,5 hPa 0,0 l/m 8,9 km/h N 13,4 C 21,3 C 31,4 km/h
11.07.2013 15:00 21,6 C 55 % 1013,7 hPa 0,0 l/m 11,3 km/h N 12,2 C 20,1 C 27,4 km/h
11.07.2013 16:00 22,0 C 49 % 1013,6 hPa 0,0 l/m 10,4 km/h N 10,8 C 20,8 C 25,7 km/h
11.07.2013 17:00 21,8 C 49 % 1013,8 hPa 0,0 l/m 11,0 km/h N 10,5 C 20,4 C 27,4 km/h
11.07.2013 18:00 20,8 C 52 % 1014,3 hPa 0,0 l/m 8,2 km/h N 10,6 C 20,1 C 23,3 km/h
11.07.2013 19:00 19,7 C 55 % 1015,0 hPa 0,0 l/m 6,3 km/h N 10,3 C 19,5 C 18,1 km/h
11.07.2013 20:00 18,8 C 58 % 1015,8 hPa 0,0 l/m 3,5 km/h N 10,4 C 18,8 C 11,3 km/h
11.07.2013 21:00 17,8 C 62 % 1016,4 hPa 0,0 l/m 2,7 km/h N 10,3 C 17,8 C 10,9 km/h
11.07.2013 22:00 16,9 C 65 % 1016,8 hPa 0,0 l/m 3,5 km/h N 10,2 C 16,9 C 12,1 km/h
11.07.2013 23:00 16,0 C 66 % 1017,2 hPa 0,0 l/m 2,1 km/h N 9,7 C 16,0 C 8,8 km/h
12.07.2013 00:00 15,6 C 68 % 1017,5 hPa 0,0 l/m 0,9 km/h N 9,8 C 15,6 C 5,6 km/h
12.07.2013 01:00 15,9 C 68 % 1017,2 hPa 0,0 l/m 3,4 km/h N 9,9 C 15,9 C 11,7 km/h
12.07.2013 02:00 16,3 C 66 % 1017,0 hPa 0,0 l/m 4,0 km/h N 10,0 C 16,3 C 15,3 km/h
12.07.2013 03:00 16,2 C 67 % 1017,0 hPa 0,0 l/m 2,0 km/h N 10,0 C 16,2 C 10,9 km/h
12.07.2013 04:00 16,3 C 66 % 1016,9 hPa 0,0 l/m 3,2 km/h N 10,0 C 16,3 C 16,9 km/h
12.07.2013 05:00 16,4 C 66 % 1017,0 hPa 0,0 l/m 7,7 km/h N 10,1 C 15,7 C 20,9 km/h
12.07.2013 06:00 16,2 C 67 % 1017,1 hPa 0,0 l/m 6,8 km/h N 10,1 C 15,9 C 20,9 km/h
12.07.2013 07:00 16,6 C 69 % 1017,1 hPa 0,0 l/m 7,3 km/h N 10,8 C 16,0 C 20,1 km/h
12.07.2013 08:00 18,1 C 65 % 1017,3 hPa 0,0 l/m 8,3 km/h N 11,4 C 17,3 C 21,3 km/h
12.07.2013 09:00 19,2 C 62 % 1017,6 hPa 0,0 l/m 9,2 km/h N 11,8 C 18,1 C 23,3 km/h
12.07.2013 10:00 20,2 C 59 % 1017,6 hPa 0,0 l/m 8,5 km/h N 11,9 C 19,4 C 22,1 km/h
12.07.2013 11:00 20,6 C 59 % 1017,6 hPa 0,0 l/m 8,4 km/h N 12,2 C 19,9 C 22,1 km/h
12.07.2013 12:00 21,4 C 57 % 1017,6 hPa 0,0 l/m 7,2 km/h N 12,4 C 21,1 C 20,9 km/h
12.07.2013 13:00 22,1 C 51 % 1017,3 hPa 0,0 l/m 8,7 km/h N 11,6 C 21,4 C 23,7 km/h
12.07.2013 14:00 22,8 C 51 % 1017,3 hPa 0,0 l/m 11,1 km/h N 11,9 C 21,4 C 26,5 km/h
12.07.2013 15:00 22,6 C 50 % 1017,3 hPa 0,0 l/m 10,0 km/h N 11,5 C 21,6 C 25,3 km/h
12.07.2013 16:00 22,8 C 50 % 1017,2 hPa 0,0 l/m 9,3 km/h N 11,7 C 22,0 C 24,9 km/h
12.07.2013 17:00 23,1 C 51 % 1017,1 hPa 0,0 l/m 7,6 km/h N 12,2 C 22,7 C 20,5 km/h
12.07.2013 18:00 23,3 C 49 % 1017,0 hPa 0,0 l/m 6,6 km/h N 12,0 C 23,0 C 16,9 km/h
12.07.2013 19:00 23,3 C 50 % 1016,9 hPa 0,0 l/m 3,0 km/h N 12,2 C 23,3 C 11,7 km/h
12.07.2013 20:00 22,1 C 54 % 1017,1 hPa 0,0 l/m 0,8 km/h N 12,2 C 22,1 C 4,4 km/h
12.07.2013 21:00 19,3 C 64 % 1017,6 hPa 0,0 l/m 0,0 km/h N 12,2 C 19,3 C 2,4 km/h
12.07.2013 22:00 17,4 C 70 % 1018,2 hPa 0,0 l/m 0,3 km/h N 11,8 C 17,4 C 4,0 km/h
12.07.2013 23:00 16,7 C 72 % 1018,6 hPa 0,0 l/m 0,1 km/h N 11,6 C 16,7 C 1,2 km/h
13.07.2013 00:00 15,5 C 77 % 1018,7 hPa 0,0 l/m 0,0 km/h N 11,4 C 15,5 C 0,0 km/h
13.07.2013 01:00 14,9 C 79 % 1018,8 hPa 0,0 l/m 0,0 km/h N 11,3 C 14,9 C 0,8 km/h
13.07.2013 02:00 14,7 C 80 % 1018,7 hPa 0,0 l/m 0,2 km/h N 11,3 C 14,7 C 3,2 km/h
13.07.2013 03:00 14,1 C 80 % 1018,5 hPa 0,0 l/m 0,0 km/h N 10,8 C 14,1 C 1,2 km/h
13.07.2013 04:00 13,8 C 82 % 1018,3 hPa 0,0 l/m 0,2 km/h N 10,8 C 13,8 C 4,0 km/h
13.07.2013 05:00 13,6 C 83 % 1018,4 hPa 0,0 l/m 0,0 km/h N 10,8 C 13,6 C 0,4 km/h
13.07.2013 06:00 14,6 C 83 % 1018,3 hPa 0,0 l/m 0,0 km/h N 11,6 C 14,6 C 1,2 km/h
13.07.2013 07:00 16,9 C 77 % 1018,2 hPa 0,0 l/m 1,3 km/h N 12,7 C 16,9 C 6,1 km/h
13.07.2013 08:00 19,3 C 67 % 1018,3 hPa 0,0 l/m 5,0 km/h N 13,1 C 19,3 C 13,7 km/h
13.07.2013 09:00 20,5 C 65 % 1018,5 hPa 0,0 l/m 4,9 km/h N 13,6 C 20,5 C 16,5 km/h
13.07.2013 10:00 21,5 C 61 % 1018,5 hPa 0,0 l/m 4,6 km/h N 13,6 C 21,5 C 14,9 km/h
13.07.2013 11:00 21,9 C 57 % 1018,4 hPa 0,0 l/m 6,8 km/h N 13,0 C 21,7 C 20,9 km/h
13.07.2013 12:00 22,6 C 55 % 1017,9 hPa 0,0 l/m 7,1 km/h N 12,9 C 22,4 C 18,9 km/h
13.07.2013 13:00 23,8 C 51 % 1017,6 hPa 0,0 l/m 6,8 km/h N 12,9 C 23,6 C 20,1 km/h
13.07.2013 14:00 24,3 C 49 % 1017,2 hPa 0,0 l/m 6,2 km/h N 12,9 C 24,2 C 21,7 km/h
13.07.2013 15:00 23,9 C 51 % 1017,1 hPa 0,0 l/m 6,3 km/h N 13,0 C 23,7 C 19,3 km/h
13.07.2013 16:00 23,2 C 52 % 1017,1 hPa 0,0 l/m 4,9 km/h N 12,6 C 23,2 C 17,3 km/h
13.07.2013 17:00 23,7 C 51 % 1017,0 hPa 0,0 l/m 5,3 km/h N 13,0 C 23,6 C 15,3 km/h
13.07.2013 18:00 23,1 C 51 % 1016,7 hPa 0,0 l/m 4,1 km/h N 12,4 C 23,1 C 11,7 km/h
13.07.2013 19:00 23,1 C 52 % 1016,8 hPa 0,0 l/m 2,1 km/h N 12,6 C 23,1 C 8,4 km/h
13.07.2013 20:00 22,3 C 57 % 1017,0 hPa 0,0 l/m 0,2 km/h N 13,3 C 22,3 C 2,0 km/h
13.07.2013 21:00 20,3 C 64 % 1017,5 hPa 0,0 l/m 0,0 km/h N 13,3 C 20,3 C 0,0 km/h
13.07.2013 22:00 17,8 C 72 % 1018,1 hPa 0,0 l/m 0,4 km/h N 12,7 C 17,8 C 2,0 km/h
13.07.2013 23:00 16,8 C 75 % 1018,4 hPa 0,0 l/m 0,0 km/h N 12,4 C 16,8 C 0,0 km/h
14.07.2013 00:00 15,6 C 78 % 1018,8 hPa 0,0 l/m 0,0 km/h N 11,7 C 15,6 C 0,0 km/h
14.07.2013 01:00 15,4 C 79 % 1018,7 hPa 0,0 l/m 0,0 km/h N 11,7 C 15,4 C 0,4 km/h
14.07.2013 02:00 15,9 C 76 % 1018,5 hPa 0,0 l/m 0,0 km/h N 11,7 C 15,9 C 1,2 km/h
14.07.2013 03:00 14,9 C 78 % 1018,4 hPa 0,0 l/m 0,4 km/h N 11,0 C 14,9 C 2,4 km/h
14.07.2013 04:00 16,3 C 72 % 1018,4 hPa 0,0 l/m 1,6 km/h N 11,2 C 16,3 C 8,4 km/h
14.07.2013 05:00 17,4 C 66 % 1018,4 hPa 0,0 l/m 3,4 km/h N 11,0 C 17,4 C 10,9 km/h
14.07.2013 06:00 17,9 C 65 % 1018,4 hPa 0,0 l/m 5,2 km/h N 11,1 C 17,9 C 14,9 km/h
14.07.2013 07:00 18,6 C 64 % 1018,7 hPa 0,0 l/m 4,3 km/h N 11,7 C 18,6 C 15,3 km/h
14.07.2013 08:00 19,8 C 62 % 1019,0 hPa 0,0 l/m 7,5 km/h N 12,3 C 19,3 C 20,5 km/h
14.07.2013 09:00 20,7 C 62 % 1019,2 hPa 0,0 l/m 7,1 km/h N 13,1 C 20,4 C 21,7 km/h
14.07.2013 10:00 21,8 C 62 % 1019,1 hPa 0,0 l/m 6,0 km/h N 14,1 C 21,7 C 18,9 km/h
14.07.2013 11:00 23,0 C 56 % 1018,9 hPa 0,0 l/m 7,3 km/h N 13,8 C 22,7 C 19,7 km/h
14.07.2013 12:00 23,4 C 54 % 1018,7 hPa 0,0 l/m 7,6 km/h N 13,5 C 23,0 C 21,3 km/h
14.07.2013 13:00 24,0 C 53 % 1018,3 hPa 0,0 l/m 7,8 km/h N 13,7 C 23,6 C 24,5 km/h
14.07.2013 14:00 24,9 C 52 % 1017,8 hPa 0,0 l/m 7,9 km/h N 14,3 C 24,6 C 22,9 km/h
14.07.2013 15:00 25,2 C 49 % 1017,6 hPa 0,0 l/m 9,1 km/h N 13,6 C 24,6 C 27,8 km/h
14.07.2013 16:00 25,3 C 48 % 1017,2 hPa 0,0 l/m 7,7 km/h N 13,6 C 25,0 C 21,3 km/h
14.07.2013 17:00 25,3 C 47 % 1017,0 hPa 0,0 l/m 5,7 km/h N 13,2 C 25,2 C 21,3 km/h
14.07.2013 18:00 25,5 C 47 % 1016,6 hPa 0,0 l/m 5,1 km/h N 13,2 C 25,5 C 18,9 km/h
14.07.2013 19:00 25,0 C 50 % 1016,5 hPa 0,0 l/m 2,7 km/h N 13,7 C 25,0 C 9,7 km/h
14.07.2013 20:00 23,6 C 56 % 1016,6 hPa 0,0 l/m 0,1 km/h N 14,3 C 23,6 C 2,8 km/h
14.07.2013 21:00 21,3 C 63 % 1017,0 hPa 0,0 l/m 0,0 km/h N 13,8 C 21,3 C 0,0 km/h
14.07.2013 22:00 19,0 C 71 % 1017,4 hPa 0,0 l/m 0,0 km/h N 13,7 C 19,0 C 0,0 km/h
14.07.2013 23:00 18,3 C 75 % 1017,5 hPa 0,0 l/m 0,0 km/h N 13,7 C 18,3 C 0,0 km/h
Min-Datum _ 13.07.13 09.07.13 10.07.13 - 09.07.13 - 11.07.13 13.07.13 09.07.13
_ Min-Zeit 05:30 17:00 19:15 - 01:15 - 23:45 05:15 01:45
Minimum _ 13,5 C 43 % 1010,4 hPa - 0,0 km/h - 9,6 C 13,6 C 0,0 km/h
Max-Datum _ 09.07.13 11.07.13 08.07.13 11.07.13 11.07.13 - 10.07.13 09.07.13 11.07.13
_ Max-Zeit 18:15 04:15 11:15 03:00 03:15 - 11:30 18:15 03:15
Maximum _ 29,1 C 83 % 1026,3 hPa 3,0 l/m 15,5 km/h
N
- 17,2 C 29,1 C 38,6 km/h
N
Durchschnitt _ 20,8 C 63 % 1018,0 hPa #8,7 l/m 3,8 km/h N 13,1 C 20,7 C 12,1 km/h